sensor_id;sensor_type;location;lat;lon;timestamp;pressure;altitude;pressure_sealevel;temperature;humidity
74708;BME280;63360;50.104;8.074;2022-09-09T00:01:51;96706.69;;;13.82;93.25
74708;BME280;63360;50.104;8.074;2022-09-09T00:04:28;96712.81;;;13.74;93.37
74708;BME280;63360;50.104;8.074;2022-09-09T00:12:50;96725.56;;;13.75;93.42
74708;BME280;63360;50.104;8.074;2022-09-09T00:15:25;96710.72;;;13.64;93.37
74708;BME280;63360;50.104;8.074;2022-09-09T00:18:02;96702.75;;;13.60;93.99
74708;BME280;63360;50.104;8.074;2022-09-09T00:23:22;96706.50;;;13.75;93.51
74708;BME280;63360;50.104;8.074;2022-09-09T00:25:57;96706.25;;;13.64;93.23
74708;BME280;63360;50.104;8.074;2022-09-09T00:28:26;96708.00;;;13.60;94.05
74708;BME280;63360;50.104;8.074;2022-09-09T00:30:52;96708.16;;;13.52;94.69
74708;BME280;63360;50.104;8.074;2022-09-09T00:33:20;96703.25;;;13.50;95.23
74708;BME280;63360;50.104;8.074;2022-09-09T00:35:58;96708.59;;;13.54;96.01
74708;BME280;63360;50.104;8.074;2022-09-09T00:38:38;96711.97;;;13.54;95.52
74708;BME280;63360;50.104;8.074;2022-09-09T00:41:31;96698.69;;;13.47;96.24
74708;BME280;63360;50.104;8.074;2022-09-09T00:44:18;96694.91;;;13.45;96.22
74708;BME280;63360;50.104;8.074;2022-09-09T00:47:08;96693.56;;;13.51;96.70
74708;BME280;63360;50.104;8.074;2022-09-09T00:53:19;96689.88;;;13.52;96.74
74708;BME280;63360;50.104;8.074;2022-09-09T00:55:41;96698.81;;;13.51;96.54
74708;BME280;63360;50.104;8.074;2022-09-09T00:58:09;96684.88;;;13.47;96.68
74708;BME280;63360;50.104;8.074;2022-09-09T01:00:49;96699.97;;;13.53;96.49
74708;BME280;63360;50.104;8.074;2022-09-09T01:09:08;96706.72;;;13.39;95.99
74708;BME280;63360;50.104;8.074;2022-09-09T01:16:59;96688.56;;;13.30;97.01
74708;BME280;63360;50.104;8.074;2022-09-09T01:22:33;96699.44;;;13.32;97.40
74708;BME280;63360;50.104;8.074;2022-09-09T01:25:56;96698.34;;;13.33;97.13
74708;BME280;63360;50.104;8.074;2022-09-09T01:28:19;96690.31;;;13.26;97.42
74708;BME280;63360;50.104;8.074;2022-09-09T01:30:46;96697.91;;;13.31;97.87
74708;BME280;63360;50.104;8.074;2022-09-09T01:33:17;96695.56;;;13.42;98.30
74708;BME280;63360;50.104;8.074;2022-09-09T01:35:48;96690.59;;;13.36;98.33
74708;BME280;63360;50.104;8.074;2022-09-09T01:38:17;96692.88;;;13.38;98.02
74708;BME280;63360;50.104;8.074;2022-09-09T01:40:42;96678.44;;;13.28;98.18
74708;BME280;63360;50.104;8.074;2022-09-09T01:43:08;96692.53;;;13.40;99.22
74708;BME280;63360;50.104;8.074;2022-09-09T01:45:34;96691.75;;;13.39;99.03
74708;BME280;63360;50.104;8.074;2022-09-09T01:48:00;96687.19;;;13.36;98.65
74708;BME280;63360;50.104;8.074;2022-09-09T01:50:25;96698.09;;;13.38;98.20
74708;BME280;63360;50.104;8.074;2022-09-09T01:52:55;96685.81;;;13.39;97.73
74708;BME280;63360;50.104;8.074;2022-09-09T01:55:29;96691.97;;;13.46;96.66
74708;BME280;63360;50.104;8.074;2022-09-09T02:00:43;96714.97;;;13.41;96.92
74708;BME280;63360;50.104;8.074;2022-09-09T02:03:27;96706.91;;;13.33;97.64
74708;BME280;63360;50.104;8.074;2022-09-09T02:06:18;96707.16;;;13.28;97.95
74708;BME280;63360;50.104;8.074;2022-09-09T02:08:52;96704.22;;;13.30;98.31
74708;BME280;63360;50.104;8.074;2022-09-09T02:11:22;96702.94;;;13.24;97.80
74708;BME280;63360;50.104;8.074;2022-09-09T02:13:51;96695.44;;;13.22;98.41
74708;BME280;63360;50.104;8.074;2022-09-09T02:19:14;96706.38;;;13.28;98.87
74708;BME280;63360;50.104;8.074;2022-09-09T02:21:43;96701.63;;;13.30;98.83
74708;BME280;63360;50.104;8.074;2022-09-09T02:24:11;96693.56;;;13.23;98.96
74708;BME280;63360;50.104;8.074;2022-09-09T02:26:40;96699.44;;;13.32;99.19
74708;BME280;63360;50.104;8.074;2022-09-09T02:29:14;96696.91;;;13.35;98.76
74708;BME280;63360;50.104;8.074;2022-09-09T02:31:41;96692.34;;;13.32;98.40
74708;BME280;63360;50.104;8.074;2022-09-09T02:34:09;96702.03;;;13.32;99.39
74708;BME280;63360;50.104;8.074;2022-09-09T02:36:37;96688.22;;;13.31;99.69
74708;BME280;63360;50.104;8.074;2022-09-09T02:39:07;96691.16;;;13.30;99.38
74708;BME280;63360;50.104;8.074;2022-09-09T02:41:36;96680.19;;;13.24;99.78
74708;BME280;63360;50.104;8.074;2022-09-09T02:44:05;96684.75;;;13.27;99.29
74708;BME280;63360;50.104;8.074;2022-09-09T02:47:08;96683.13;;;13.23;99.48
74708;BME280;63360;50.104;8.074;2022-09-09T02:49:44;96685.41;;;13.24;99.20
74708;BME280;63360;50.104;8.074;2022-09-09T02:52:15;96668.34;;;13.15;98.82
74708;BME280;63360;50.104;8.074;2022-09-09T02:54:42;96680.22;;;13.12;99.27
74708;BME280;63360;50.104;8.074;2022-09-09T02:57:19;96682.09;;;13.12;98.82
74708;BME280;63360;50.104;8.074;2022-09-09T02:59:46;96683.09;;;13.07;99.80
74708;BME280;63360;50.104;8.074;2022-09-09T03:02:12;96678.72;;;12.99;99.34
74708;BME280;63360;50.104;8.074;2022-09-09T03:04:38;96677.31;;;13.02;99.29
74708;BME280;63360;50.104;8.074;2022-09-09T03:07:04;96677.88;;;12.95;100.00
74708;BME280;63360;50.104;8.074;2022-09-09T03:09:30;96668.00;;;12.89;100.00
74708;BME280;63360;50.104;8.074;2022-09-09T03:11:55;96675.94;;;12.92;100.00
74708;BME280;63360;50.104;8.074;2022-09-09T03:14:22;96672.31;;;12.97;100.00
74708;BME280;63360;50.104;8.074;2022-09-09T03:16:53;96682.88;;;13.00;100.00
74708;BME280;63360;50.104;8.074;2022-09-09T03:19:19;96689.38;;;13.06;100.00
74708;BME280;63360;50.104;8.074;2022-09-09T03:21:47;96690.16;;;13.07;100.00
74708;BME280;63360;50.104;8.074;2022-09-09T03:24:13;96691.03;;;13.11;100.00
74708;BME280;63360;50.104;8.074;2022-09-09T03:26:39;96694.16;;;13.16;100.00
74708;BME280;63360;50.104;8.074;2022-09-09T03:29:06;96695.34;;;13.19;100.00
74708;BME280;63360;50.104;8.074;2022-09-09T03:31:32;96687.41;;;13.15;100.00
74708;BME280;63360;50.104;8.074;2022-09-09T03:33:57;96690.31;;;13.26;100.00
74708;BME280;63360;50.104;8.074;2022-09-09T03:36:26;96685.84;;;13.26;100.00
74708;BME280;63360;50.104;8.074;2022-09-09T03:38:52;96690.13;;;13.19;100.00
74708;BME280;63360;50.104;8.074;2022-09-09T03:41:19;96689.78;;;13.20;100.00
74708;BME280;63360;50.104;8.074;2022-09-09T03:43:44;96684.16;;;13.34;100.00
74708;BME280;63360;50.104;8.074;2022-09-09T03:46:10;96693.97;;;13.37;100.00
74708;BME280;63360;50.104;8.074;2022-09-09T03:48:35;96686.03;;;13.33;100.00
74708;BME280;63360;50.104;8.074;2022-09-09T03:51:00;96685.28;;;13.33;100.00
74708;BME280;63360;50.104;8.074;2022-09-09T03:53:26;96691.34;;;13.37;100.00
74708;BME280;63360;50.104;8.074;2022-09-09T03:55:55;96689.81;;;13.36;100.00
74708;BME280;63360;50.104;8.074;2022-09-09T03:58:22;96681.13;;;13.32;100.00
74708;BME280;63360;50.104;8.074;2022-09-09T04:01:15;96682.44;;;13.38;100.00
74708;BME280;63360;50.104;8.074;2022-09-09T04:03:43;96682.50;;;13.42;100.00
74708;BME280;63360;50.104;8.074;2022-09-09T04:06:11;96683.47;;;13.49;100.00
74708;BME280;63360;50.104;8.074;2022-09-09T04:08:38;96679.31;;;13.48;100.00
74708;BME280;63360;50.104;8.074;2022-09-09T04:11:04;96671.13;;;13.50;100.00
74708;BME280;63360;50.104;8.074;2022-09-09T04:13:32;96660.94;;;13.45;100.00
74708;BME280;63360;50.104;8.074;2022-09-09T04:15:58;96656.22;;;13.34;100.00
74708;BME280;63360;50.104;8.074;2022-09-09T04:18:25;96666.16;;;13.45;100.00
74708;BME280;63360;50.104;8.074;2022-09-09T04:20:52;96664.66;;;13.44;100.00
74708;BME280;63360;50.104;8.074;2022-09-09T04:23:18;96655.97;;;13.40;100.00
74708;BME280;63360;50.104;8.074;2022-09-09T04:25:49;96672.66;;;13.51;100.00
74708;BME280;63360;50.104;8.074;2022-09-09T04:28:16;96681.03;;;13.56;100.00
74708;BME280;63360;50.104;8.074;2022-09-09T04:30:43;96683.53;;;13.53;100.00
74708;BME280;63360;50.104;8.074;2022-09-09T04:33:09;96691.72;;;13.51;100.00
74708;BME280;63360;50.104;8.074;2022-09-09T04:35:35;96675.53;;;13.46;100.00
74708;BME280;63360;50.104;8.074;2022-09-09T04:38:01;96688.69;;;13.49;100.00
74708;BME280;63360;50.104;8.074;2022-09-09T04:40:28;96692.03;;;13.50;100.00
74708;BME280;63360;50.104;8.074;2022-09-09T04:42:54;96688.50;;;13.42;100.00
74708;BME280;63360;50.104;8.074;2022-09-09T04:45:20;96684.44;;;13.45;100.00
74708;BME280;63360;50.104;8.074;2022-09-09T04:47:45;96688.41;;;13.39;100.00
74708;BME280;63360;50.104;8.074;2022-09-09T04:50:10;96682.09;;;13.40;100.00
74708;BME280;63360;50.104;8.074;2022-09-09T04:52:37;96678.19;;;13.33;100.00
74708;BME280;63360;50.104;8.074;2022-09-09T04:55:03;96686.47;;;13.35;100.00
74708;BME280;63360;50.104;8.074;2022-09-09T04:57:29;96691.25;;;13.33;100.00
74708;BME280;63360;50.104;8.074;2022-09-09T04:59:55;96691.41;;;13.25;100.00
74708;BME280;63360;50.104;8.074;2022-09-09T05:02:20;96697.38;;;13.25;100.00
74708;BME280;63360;50.104;8.074;2022-09-09T05:04:46;96692.50;;;13.24;100.00
74708;BME280;63360;50.104;8.074;2022-09-09T05:07:11;96691.31;;;13.21;100.00
74708;BME280;63360;50.104;8.074;2022-09-09T05:09:36;96684.78;;;13.15;100.00
74708;BME280;63360;50.104;8.074;2022-09-09T05:12:01;96695.34;;;13.19;100.00
74708;BME280;63360;50.104;8.074;2022-09-09T05:14:28;96706.44;;;13.16;100.00
74708;BME280;63360;50.104;8.074;2022-09-09T05:16:54;96704.19;;;13.14;100.00
74708;BME280;63360;50.104;8.074;2022-09-09T05:19:20;96703.00;;;13.12;100.00
74708;BME280;63360;50.104;8.074;2022-09-09T05:21:46;96714.63;;;13.14;100.00
74708;BME280;63360;50.104;8.074;2022-09-09T05:24:11;96696.13;;;13.07;100.00
74708;BME280;63360;50.104;8.074;2022-09-09T05:26:36;96703.09;;;13.03;100.00
74708;BME280;63360;50.104;8.074;2022-09-09T05:29:02;96714.63;;;13.14;100.00
74708;BME280;63360;50.104;8.074;2022-09-09T05:31:30;96714.94;;;13.13;100.00
74708;BME280;63360;50.104;8.074;2022-09-09T05:33:55;96715.91;;;13.20;100.00
74708;BME280;63360;50.104;8.074;2022-09-09T05:36:22;96717.78;;;13.20;100.00
74708;BME280;63360;50.104;8.074;2022-09-09T05:38:47;96719.69;;;13.23;100.00
74708;BME280;63360;50.104;8.074;2022-09-09T05:41:14;96707.59;;;13.30;100.00
74708;BME280;63360;50.104;8.074;2022-09-09T05:43:43;96716.91;;;13.44;100.00
74708;BME280;63360;50.104;8.074;2022-09-09T05:46:14;96723.31;;;13.46;100.00
74708;BME280;63360;50.104;8.074;2022-09-09T05:48:41;96719.69;;;13.51;100.00
74708;BME280;63360;50.104;8.074;2022-09-09T05:51:10;96727.91;;;13.65;100.00
74708;BME280;63360;50.104;8.074;2022-09-09T05:53:37;96731.53;;;13.76;100.00
74708;BME280;63360;50.104;8.074;2022-09-09T05:56:04;96730.88;;;13.79;100.00
74708;BME280;63360;50.104;8.074;2022-09-09T05:58:31;96735.44;;;13.82;99.79
74708;BME280;63360;50.104;8.074;2022-09-09T06:01:10;96730.63;;;13.84;99.72
74708;BME280;63360;50.104;8.074;2022-09-09T06:03:38;96721.97;;;13.95;99.50
74708;BME280;63360;50.104;8.074;2022-09-09T06:06:06;96725.25;;;14.08;96.89
74708;BME280;63360;50.104;8.074;2022-09-09T06:08:37;96731.59;;;14.23;94.94
74708;BME280;63360;50.104;8.074;2022-09-09T06:11:09;96723.91;;;14.30;92.58
74708;BME280;63360;50.104;8.074;2022-09-09T06:13:34;96732.25;;;14.51;91.27
74708;BME280;63360;50.104;8.074;2022-09-09T06:16:02;96734.88;;;14.51;91.17
74708;BME280;63360;50.104;8.074;2022-09-09T06:18:29;96740.13;;;14.51;91.16
74708;BME280;63360;50.104;8.074;2022-09-09T06:21:03;96734.47;;;14.49;91.07
74708;BME280;63360;50.104;8.074;2022-09-09T06:23:29;96736.97;;;14.61;91.33
74708;BME280;63360;50.104;8.074;2022-09-09T06:28:31;96735.47;;;14.60;91.16
74708;BME280;63360;50.104;8.074;2022-09-09T06:31:04;96742.66;;;14.63;91.25
74708;BME280;63360;50.104;8.074;2022-09-09T06:33:31;96731.81;;;14.65;91.25
74708;BME280;63360;50.104;8.074;2022-09-09T06:35:58;96733.19;;;14.58;92.25
74708;BME280;63360;50.104;8.074;2022-09-09T06:38:23;96734.22;;;14.54;91.36
74708;BME280;63360;50.104;8.074;2022-09-09T06:40:53;96727.78;;;14.51;90.07
74708;BME280;63360;50.104;8.074;2022-09-09T06:43:20;96738.00;;;14.56;89.83
74708;BME280;63360;50.104;8.074;2022-09-09T06:45:55;96726.63;;;14.49;90.57
74708;BME280;63360;50.104;8.074;2022-09-09T06:48:21;96726.75;;;14.56;90.75
74708;BME280;63360;50.104;8.074;2022-09-09T06:50:46;96727.53;;;14.56;90.64
74708;BME280;63360;50.104;8.074;2022-09-09T06:53:12;96734.84;;;14.67;89.99
74708;BME280;63360;50.104;8.074;2022-09-09T06:55:37;96739.59;;;14.77;89.39
74708;BME280;63360;50.104;8.074;2022-09-09T06:58:08;96732.63;;;14.84;89.56
74708;BME280;63360;50.104;8.074;2022-09-09T07:00:33;96727.00;;;14.82;89.31
74708;BME280;63360;50.104;8.074;2022-09-09T07:02:58;96732.78;;;14.91;89.75
74708;BME280;63360;50.104;8.074;2022-09-09T07:05:23;96735.63;;;15.02;89.03
74708;BME280;63360;50.104;8.074;2022-09-09T07:07:51;96730.38;;;15.02;90.46
74708;BME280;63360;50.104;8.074;2022-09-09T07:10:16;96732.94;;;15.17;88.00
74708;BME280;63360;50.104;8.074;2022-09-09T07:23:13;96747.16;;;15.16;86.59
74708;BME280;63360;50.104;8.074;2022-09-09T07:25:44;96730.25;;;15.14;86.43
74708;BME280;63360;50.104;8.074;2022-09-09T07:28:10;96738.53;;;15.16;85.77
74708;BME280;63360;50.104;8.074;2022-09-09T07:30:35;96748.13;;;15.08;85.98
74708;BME280;63360;50.104;8.074;2022-09-09T07:33:00;96755.34;;;15.15;86.34
74708;BME280;63360;50.104;8.074;2022-09-09T07:35:27;96768.44;;;15.15;85.47
74708;BME280;63360;50.104;8.074;2022-09-09T07:37:52;96754.34;;;15.04;85.28
74708;BME280;63360;50.104;8.074;2022-09-09T07:40:18;96765.69;;;15.08;86.25
74708;BME280;63360;50.104;8.074;2022-09-09T07:42:47;96764.31;;;15.14;85.48
74708;BME280;63360;50.104;8.074;2022-09-09T07:45:12;96763.16;;;15.11;85.01
74708;BME280;63360;50.104;8.074;2022-09-09T07:47:38;96772.50;;;15.12;85.00
74708;BME280;63360;50.104;8.074;2022-09-09T07:50:03;96762.97;;;15.04;85.00
74708;BME280;63360;50.104;8.074;2022-09-09T07:52:29;96763.47;;;15.10;85.30
74708;BME280;63360;50.104;8.074;2022-09-09T07:54:54;96763.38;;;15.06;84.77
74708;BME280;63360;50.104;8.074;2022-09-09T07:57:20;96767.19;;;15.09;85.05
74708;BME280;63360;50.104;8.074;2022-09-09T07:59:46;96766.09;;;15.10;86.19
74708;BME280;63360;50.104;8.074;2022-09-09T08:02:11;96763.28;;;15.18;86.42
74708;BME280;63360;50.104;8.074;2022-09-09T08:04:37;96771.69;;;15.28;84.64
74708;BME280;63360;50.104;8.074;2022-09-09T08:07:02;96764.53;;;15.25;84.69
74708;BME280;63360;50.104;8.074;2022-09-09T08:09:28;96777.91;;;15.39;85.42
74708;BME280;63360;50.104;8.074;2022-09-09T08:11:55;96777.41;;;15.33;85.09
74708;BME280;63360;50.104;8.074;2022-09-09T08:14:22;96773.91;;;15.26;85.05
74708;BME280;63360;50.104;8.074;2022-09-09T08:16:49;96787.09;;;15.29;86.58
74708;BME280;63360;50.104;8.074;2022-09-09T08:19:15;96786.03;;;15.34;86.35
74708;BME280;63360;50.104;8.074;2022-09-09T08:21:42;96791.69;;;15.36;85.68
74708;BME280;63360;50.104;8.074;2022-09-09T08:24:09;96782.66;;;15.33;85.15
74708;BME280;63360;50.104;8.074;2022-09-09T08:26:40;96786.22;;;15.41;85.21
74708;BME280;63360;50.104;8.074;2022-09-09T08:29:08;96785.09;;;15.42;84.04
74708;BME280;63360;50.104;8.074;2022-09-09T08:31:40;96795.06;;;15.36;85.21
74708;BME280;63360;50.104;8.074;2022-09-09T08:34:07;96794.66;;;15.34;84.41
74708;BME280;63360;50.104;8.074;2022-09-09T08:36:36;96798.19;;;15.42;84.64
74708;BME280;63360;50.104;8.074;2022-09-09T08:39:03;96796.75;;;15.44;84.18
74708;BME280;63360;50.104;8.074;2022-09-09T08:42:00;96797.41;;;15.41;82.52
74708;BME280;63360;50.104;8.074;2022-09-09T08:47:54;96789.47;;;15.53;84.63
74708;BME280;63360;50.104;8.074;2022-09-09T08:50:26;96785.13;;;15.61;83.10
74708;BME280;63360;50.104;8.074;2022-09-09T08:55:52;96795.13;;;15.74;83.20
74708;BME280;63360;50.104;8.074;2022-09-09T08:58:22;96781.44;;;15.65;83.16
74708;BME280;63360;50.104;8.074;2022-09-09T09:09:08;96791.78;;;15.97;83.22
74708;BME280;63360;50.104;8.074;2022-09-09T09:11:43;96785.72;;;15.93;82.68
74708;BME280;63360;50.104;8.074;2022-09-09T09:14:22;96799.50;;;16.09;81.44
74708;BME280;63360;50.104;8.074;2022-09-09T09:16:55;96800.44;;;16.20;78.94
74708;BME280;63360;50.104;8.074;2022-09-09T09:19:22;96794.91;;;16.25;74.96
74708;BME280;63360;50.104;8.074;2022-09-09T09:22:10;96795.94;;;16.20;76.12
74708;BME280;63360;50.104;8.074;2022-09-09T09:24:55;96793.16;;;16.10;77.02
74708;BME280;63360;50.104;8.074;2022-09-09T09:27:40;96792.97;;;16.22;76.72
74708;BME280;63360;50.104;8.074;2022-09-09T09:30:16;96792.03;;;16.33;74.98
74708;BME280;63360;50.104;8.074;2022-09-09T09:32:54;96799.03;;;16.49;74.80
74708;BME280;63360;50.104;8.074;2022-09-09T09:35:20;96784.63;;;16.62;74.52
74708;BME280;63360;50.104;8.074;2022-09-09T09:37:46;96788.78;;;16.89;73.07
74708;BME280;63360;50.104;8.074;2022-09-09T09:40:15;96775.97;;;16.84;74.02
74708;BME280;63360;50.104;8.074;2022-09-09T09:42:53;96795.69;;;17.01;69.54
74708;BME280;63360;50.104;8.074;2022-09-09T09:45:27;96786.66;;;16.98;69.98
74708;BME280;63360;50.104;8.074;2022-09-09T09:48:02;96793.50;;;17.03;67.21
74708;BME280;63360;50.104;8.074;2022-09-09T09:50:29;96794.81;;;16.89;67.29
74708;BME280;63360;50.104;8.074;2022-09-09T09:52:56;96795.38;;;16.79;66.56
74708;BME280;63360;50.104;8.074;2022-09-09T09:55:24;96783.72;;;16.77;67.23
74708;BME280;63360;50.104;8.074;2022-09-09T09:57:50;96791.50;;;16.70;67.75
74708;BME280;63360;50.104;8.074;2022-09-09T10:00:18;96795.34;;;16.76;66.08
74708;BME280;63360;50.104;8.074;2022-09-09T10:02:46;96788.19;;;16.73;68.15
74708;BME280;63360;50.104;8.074;2022-09-09T10:05:17;96781.09;;;16.77;67.79
74708;BME280;63360;50.104;8.074;2022-09-09T10:07:43;96781.63;;;16.86;67.20
74708;BME280;63360;50.104;8.074;2022-09-09T10:10:14;96774.66;;;16.97;68.53
74708;BME280;63360;50.104;8.074;2022-09-09T10:13:05;96778.97;;;17.12;67.79
74708;BME280;63360;50.104;8.074;2022-09-09T10:15:55;96767.50;;;17.24;65.91
74708;BME280;63360;50.104;8.074;2022-09-09T10:27:21;96762.34;;;17.34;63.74
74708;BME280;63360;50.104;8.074;2022-09-09T10:35:10;96749.75;;;17.17;64.03
74708;BME280;63360;50.104;8.074;2022-09-09T10:40:33;96766.75;;;17.53;64.68
74708;BME280;63360;50.104;8.074;2022-09-09T10:43:09;96758.88;;;17.56;62.43
74708;BME280;63360;50.104;8.074;2022-09-09T10:48:40;96763.28;;;17.82;61.05
74708;BME280;63360;50.104;8.074;2022-09-09T10:56:16;96745.75;;;17.93;58.42
74708;BME280;63360;50.104;8.074;2022-09-09T10:59:05;96757.44;;;17.99;59.54
74708;BME280;63360;50.104;8.074;2022-09-09T11:04:10;96759.25;;;17.92;59.35
74708;BME280;63360;50.104;8.074;2022-09-09T11:06:44;96754.31;;;17.87;61.13
74708;BME280;63360;50.104;8.074;2022-09-09T11:09:16;96744.13;;;17.82;60.43
74708;BME280;63360;50.104;8.074;2022-09-09T11:11:51;96760.69;;;17.86;61.14
74708;BME280;63360;50.104;8.074;2022-09-09T11:14:26;96747.13;;;17.80;59.91
74708;BME280;63360;50.104;8.074;2022-09-09T11:16:57;96751.25;;;17.81;60.17
74708;BME280;63360;50.104;8.074;2022-09-09T11:19:30;96756.91;;;17.83;60.98
74708;BME280;63360;50.104;8.074;2022-09-09T11:22:02;96750.41;;;17.74;62.34
74708;BME280;63360;50.104;8.074;2022-09-09T11:24:36;96753.97;;;17.88;61.44
74708;BME280;63360;50.104;8.074;2022-09-09T11:27:26;96752.06;;;17.89;62.04
74708;BME280;63360;50.104;8.074;2022-09-09T11:36:26;96754.56;;;18.15;63.64
74708;BME280;63360;50.104;8.074;2022-09-09T11:39:35;96749.00;;;18.24;63.13
74708;BME280;63360;50.104;8.074;2022-09-09T11:42:07;96754.19;;;18.13;62.60
74708;BME280;63360;50.104;8.074;2022-09-09T11:44:33;96758.38;;;18.21;63.53
74708;BME280;63360;50.104;8.074;2022-09-09T11:46:58;96763.38;;;18.33;61.87
74708;BME280;63360;50.104;8.074;2022-09-09T11:54:47;96752.63;;;18.49;60.75
74708;BME280;63360;50.104;8.074;2022-09-09T11:57:35;96758.66;;;18.49;61.70
74708;BME280;63360;50.104;8.074;2022-09-09T12:00:01;96762.25;;;18.34;61.86
74708;BME280;63360;50.104;8.074;2022-09-09T12:02:28;96763.22;;;18.15;60.85
74708;BME280;63360;50.104;8.074;2022-09-09T12:10:19;96788.69;;;17.68;68.43
74708;BME280;63360;50.104;8.074;2022-09-09T12:12:46;96782.44;;;17.49;68.32
74708;BME280;63360;50.104;8.074;2022-09-09T12:17:57;96785.38;;;17.44;67.65
74708;BME280;63360;50.104;8.074;2022-09-09T12:25:46;96770.00;;;17.76;66.84
74708;BME280;63360;50.104;8.074;2022-09-09T12:28:17;96772.00;;;17.90;67.06
74708;BME280;63360;50.104;8.074;2022-09-09T12:33:21;96761.25;;;18.05;65.16
74708;BME280;63360;50.104;8.074;2022-09-09T12:35:53;96753.41;;;18.09;65.03
74708;BME280;63360;50.104;8.074;2022-09-09T12:38:38;96754.97;;;18.17;64.84
74708;BME280;63360;50.104;8.074;2022-09-09T12:41:04;96752.44;;;18.28;63.88
74708;BME280;63360;50.104;8.074;2022-09-09T12:43:29;96743.78;;;18.27;65.52
74708;BME280;63360;50.104;8.074;2022-09-09T12:46:03;96732.44;;;18.23;65.88
74708;BME280;63360;50.104;8.074;2022-09-09T12:48:36;96731.03;;;18.33;64.23
74708;BME280;63360;50.104;8.074;2022-09-09T12:51:05;96733.69;;;18.36;61.83
74708;BME280;63360;50.104;8.074;2022-09-09T12:53:35;96732.13;;;18.32;64.51
74708;BME280;63360;50.104;8.074;2022-09-09T12:56:07;96731.78;;;18.33;62.92
74708;BME280;63360;50.104;8.074;2022-09-09T12:58:33;96723.00;;;18.18;64.86
74708;BME280;63360;50.104;8.074;2022-09-09T13:01:01;96735.53;;;18.32;65.17
74708;BME280;63360;50.104;8.074;2022-09-09T13:03:30;96736.00;;;18.45;65.14
74708;BME280;63360;50.104;8.074;2022-09-09T13:06:11;96740.50;;;18.44;65.59
74708;BME280;63360;50.104;8.074;2022-09-09T13:08:37;96742.00;;;18.42;65.64
74708;BME280;63360;50.104;8.074;2022-09-09T13:11:07;96748.81;;;18.46;64.90
74708;BME280;63360;50.104;8.074;2022-09-09T13:13:40;96752.88;;;18.37;65.13
74708;BME280;63360;50.104;8.074;2022-09-09T13:16:29;96742.66;;;18.28;67.19
74708;BME280;63360;50.104;8.074;2022-09-09T13:18:58;96726.41;;;18.19;66.89
74708;BME280;63360;50.104;8.074;2022-09-09T13:21:32;96734.69;;;18.21;66.97
74708;BME280;63360;50.104;8.074;2022-09-09T13:23:59;96732.94;;;18.39;63.56
74708;BME280;63360;50.104;8.074;2022-09-09T13:26:28;96718.28;;;18.42;63.07
74708;BME280;63360;50.104;8.074;2022-09-09T13:29:09;96722.34;;;18.29;64.67
74708;BME280;63360;50.104;8.074;2022-09-09T13:31:42;96726.16;;;18.35;63.58
74708;BME280;63360;50.104;8.074;2022-09-09T13:34:27;96723.72;;;18.15;64.41
74708;BME280;63360;50.104;8.074;2022-09-09T13:37:01;96740.53;;;18.00;64.09
74708;BME280;63360;50.104;8.074;2022-09-09T13:39:27;96733.53;;;17.75;65.20
74708;BME280;63360;50.104;8.074;2022-09-09T13:41:53;96738.75;;;17.71;66.16
74708;BME280;63360;50.104;8.074;2022-09-09T13:44:24;96725.84;;;17.59;66.59
74708;BME280;63360;50.104;8.074;2022-09-09T13:47:17;96735.56;;;17.55;66.14
74708;BME280;63360;50.104;8.074;2022-09-09T13:49:44;96730.88;;;17.41;67.27
74708;BME280;63360;50.104;8.074;2022-09-09T13:52:13;96733.78;;;17.33;67.62
74708;BME280;63360;50.104;8.074;2022-09-09T13:54:39;96745.75;;;17.27;68.11
74708;BME280;63360;50.104;8.074;2022-09-09T13:57:05;96746.94;;;17.03;69.72
74708;BME280;63360;50.104;8.074;2022-09-09T13:59:30;96760.09;;;17.03;71.04
74708;BME280;63360;50.104;8.074;2022-09-09T14:01:57;96756.81;;;16.83;73.68
74708;BME280;63360;50.104;8.074;2022-09-09T14:04:22;96746.31;;;16.57;75.81
74708;BME280;63360;50.104;8.074;2022-09-09T14:06:48;96759.19;;;16.43;75.69
74708;BME280;63360;50.104;8.074;2022-09-09T14:09:16;96751.28;;;16.17;80.17
74708;BME280;63360;50.104;8.074;2022-09-09T14:11:43;96756.91;;;16.19;81.76
74708;BME280;63360;50.104;8.074;2022-09-09T14:14:09;96753.50;;;16.15;81.67
74708;BME280;63360;50.104;8.074;2022-09-09T14:16:34;96746.66;;;16.10;84.35
74708;BME280;63360;50.104;8.074;2022-09-09T14:19:00;96745.31;;;16.20;81.68
74708;BME280;63360;50.104;8.074;2022-09-09T14:21:27;96733.19;;;16.12;80.52
74708;BME280;63360;50.104;8.074;2022-09-09T14:23:52;96725.66;;;16.10;80.18
74708;BME280;63360;50.104;8.074;2022-09-09T14:26:18;96735.59;;;16.20;80.35
74708;BME280;63360;50.104;8.074;2022-09-09T14:28:46;96724.34;;;16.20;80.07
74708;BME280;63360;50.104;8.074;2022-09-09T14:31:12;96726.06;;;16.35;80.81
74708;BME280;63360;50.104;8.074;2022-09-09T14:33:39;96724.28;;;16.43;81.60
74708;BME280;63360;50.104;8.074;2022-09-09T14:36:04;96721.44;;;16.51;80.31
74708;BME280;63360;50.104;8.074;2022-09-09T14:38:32;96731.00;;;16.63;79.29
74708;BME280;63360;50.104;8.074;2022-09-09T14:40:58;96744.31;;;16.77;80.69
74708;BME280;63360;50.104;8.074;2022-09-09T14:43:24;96727.06;;;16.76;78.06
74708;BME280;63360;50.104;8.074;2022-09-09T14:45:49;96725.19;;;16.76;78.49
74708;BME280;63360;50.104;8.074;2022-09-09T14:48:16;96723.38;;;16.80;76.20
74708;BME280;63360;50.104;8.074;2022-09-09T14:50:42;96721.84;;;16.79;77.22
74708;BME280;63360;50.104;8.074;2022-09-09T14:53:08;96724.06;;;16.77;78.30
74708;BME280;63360;50.104;8.074;2022-09-09T14:55:34;96718.31;;;16.94;76.16
74708;BME280;63360;50.104;8.074;2022-09-09T14:57:59;96702.94;;;16.96;76.44
74708;BME280;63360;50.104;8.074;2022-09-09T15:00:25;96701.41;;;16.95;74.99
74708;BME280;63360;50.104;8.074;2022-09-09T15:02:55;96706.66;;;16.92;75.91
74708;BME280;63360;50.104;8.074;2022-09-09T15:05:21;96702.44;;;16.87;74.32
74708;BME280;63360;50.104;8.074;2022-09-09T15:07:46;96715.69;;;16.94;74.55